Kirk, Colorado
Current Conditions -  °F | °C
As of 6:53 PM on Wednesday 17 Dec 2014 (Local Time) from KITR Reporting Station
Moderate Fog Moderate Fog  
Wind Chill: 17°   Ceiling: 200
Heat Index: 25°   Visibility: 0.5mi
Dew Point: 23°   Wind: 7mph
Humidity: 92%   Direction: 100°E
Pressure: 30.01"   Gusts: NA
Location:  39.61°N, 102.59°W
Report Text: KITR 180153Z AUTO 10006KT 1/2SM FZFG VV002 M04/M05 A3001 RMK AO2 SLP195 I1000 T10391050
Loading
Personal Weather Stations






























Interactive Weather Map New forecast layout! Learn more

10-Day Weather Forecast

Advertisements
Track Severe Weather on mobile